sensor_id;sensor_type;location;lat;lon;timestamp;P1;durP1;ratioP1;P2;durP2;ratioP2
71955;SDS011;59829;50.562;6.258;2022-10-16T00:00:03;0.60;;;0.50;;
71955;SDS011;59829;50.562;6.258;2022-10-16T00:10:04;0.60;;;0.30;;
71955;SDS011;59829;50.562;6.258;2022-10-16T00:20:04;0.40;;;0.28;;
71955;SDS011;59829;50.562;6.258;2022-10-16T00:30:05;0.15;;;0.10;;
71955;SDS011;59829;50.562;6.258;2022-10-16T00:40:08;0.20;;;0.10;;
71955;SDS011;59829;50.562;6.258;2022-10-16T00:50:28;0.20;;;0.20;;
71955;SDS011;59829;50.562;6.258;2022-10-16T01:00:31;0.63;;;0.30;;
71955;SDS011;59829;50.562;6.258;2022-10-16T01:10:35;0.47;;;0.35;;
71955;SDS011;59829;50.562;6.258;2022-10-16T01:20:47;0.93;;;0.30;;
71955;SDS011;59829;50.562;6.258;2022-10-16T01:30:53;0.30;;;0.30;;
71955;SDS011;59829;50.562;6.258;2022-10-16T01:40:59;0.43;;;0.20;;
71955;SDS011;59829;50.562;6.258;2022-10-16T01:51:05;0.15;;;0.15;;
71955;SDS011;59829;50.562;6.258;2022-10-16T02:01:09;0.40;;;0.22;;
71955;SDS011;59829;50.562;6.258;2022-10-16T02:11:13;0.80;;;0.38;;
71955;SDS011;59829;50.562;6.258;2022-10-16T02:21:26;0.20;;;0.20;;
71955;SDS011;59829;50.562;6.258;2022-10-16T02:31:31;0.30;;;0.30;;
71955;SDS011;59829;50.562;6.258;2022-10-16T02:41:35;0.60;;;0.25;;
71955;SDS011;59829;50.562;6.258;2022-10-16T02:51:36;0.25;;;0.10;;
71955;SDS011;59829;50.562;6.258;2022-10-16T03:01:36;0.40;;;0.30;;
71955;SDS011;59829;50.562;6.258;2022-10-16T03:11:37;0.20;;;0.15;;
71955;SDS011;59829;50.562;6.258;2022-10-16T03:21:37;0.30;;;0.22;;
71955;SDS011;59829;50.562;6.258;2022-10-16T03:31:37;0.60;;;0.40;;
71955;SDS011;59829;50.562;6.258;2022-10-16T03:41:38;0.82;;;0.40;;
71955;SDS011;59829;50.562;6.258;2022-10-16T03:51:38;0.32;;;0.30;;
71955;SDS011;59829;50.562;6.258;2022-10-16T04:01:38;1.63;;;0.55;;
71955;SDS011;59829;50.562;6.258;2022-10-16T04:11:39;0.75;;;0.63;;
71955;SDS011;59829;50.562;6.258;2022-10-16T04:21:39;0.68;;;0.50;;
71955;SDS011;59829;50.562;6.258;2022-10-16T04:31:39;0.88;;;0.60;;
71955;SDS011;59829;50.562;6.258;2022-10-16T04:41:40;0.50;;;0.43;;
71955;SDS011;59829;50.562;6.258;2022-10-16T04:51:40;0.70;;;0.50;;
71955;SDS011;59829;50.562;6.258;2022-10-16T05:01:40;0.60;;;0.40;;
71955;SDS011;59829;50.562;6.258;2022-10-16T05:11:41;0.70;;;0.30;;
71955;SDS011;59829;50.562;6.258;2022-10-16T05:21:41;0.43;;;0.30;;
71955;SDS011;59829;50.562;6.258;2022-10-16T05:31:41;0.30;;;0.22;;
71955;SDS011;59829;50.562;6.258;2022-10-16T05:41:42;0.50;;;0.30;;
71955;SDS011;59829;50.562;6.258;2022-10-16T05:51:42;0.50;;;0.38;;
71955;SDS011;59829;50.562;6.258;2022-10-16T06:01:43;0.77;;;0.40;;
71955;SDS011;59829;50.562;6.258;2022-10-16T06:11:43;0.45;;;0.30;;
71955;SDS011;59829;50.562;6.258;2022-10-16T06:21:43;0.50;;;0.40;;
71955;SDS011;59829;50.562;6.258;2022-10-16T06:31:44;0.40;;;0.40;;
71955;SDS011;59829;50.562;6.258;2022-10-16T06:41:44;0.50;;;0.20;;
71955;SDS011;59829;50.562;6.258;2022-10-16T06:51:44;0.28;;;0.20;;
71955;SDS011;59829;50.562;6.258;2022-10-16T07:01:45;0.25;;;0.20;;
71955;SDS011;59829;50.562;6.258;2022-10-16T07:11:45;0.40;;;0.30;;
71955;SDS011;59829;50.562;6.258;2022-10-16T07:21:45;0.68;;;0.20;;
71955;SDS011;59829;50.562;6.258;2022-10-16T07:31:46;0.20;;;0.20;;
71955;SDS011;59829;50.562;6.258;2022-10-16T07:41:48;1.03;;;0.30;;
71955;SDS011;59829;50.562;6.258;2022-10-16T07:51:48;1.75;;;0.77;;
71955;SDS011;59829;50.562;6.258;2022-10-16T08:01:49;1.20;;;0.63;;
71955;SDS011;59829;50.562;6.258;2022-10-16T08:11:49;1.15;;;0.60;;
71955;SDS011;59829;50.562;6.258;2022-10-16T08:21:50;0.43;;;0.30;;
71955;SDS011;59829;50.562;6.258;2022-10-16T08:31:50;0.50;;;0.30;;
71955;SDS011;59829;50.562;6.258;2022-10-16T08:41:56;1.13;;;0.38;;
71955;SDS011;59829;50.562;6.258;2022-10-16T08:52:10;0.75;;;0.30;;
71955;SDS011;59829;50.562;6.258;2022-10-16T09:12:28;0.60;;;0.20;;
71955;SDS011;59829;50.562;6.258;2022-10-16T09:22:37;0.30;;;0.20;;
71955;SDS011;59829;50.562;6.258;2022-10-16T09:32:37;0.30;;;0.20;;
71955;SDS011;59829;50.562;6.258;2022-10-16T09:42:39;0.52;;;0.15;;
71955;SDS011;59829;50.562;6.258;2022-10-16T09:52:39;1.08;;;0.30;;
71955;SDS011;59829;50.562;6.258;2022-10-16T10:02:39;0.35;;;0.10;;
71955;SDS011;59829;50.562;6.258;2022-10-16T10:12:40;0.20;;;0.20;;
71955;SDS011;59829;50.562;6.258;2022-10-16T10:22:42;0.40;;;0.10;;
71955;SDS011;59829;50.562;6.258;2022-10-16T10:32:49;0.17;;;0.10;;
71955;SDS011;59829;50.562;6.258;2022-10-16T10:53:52;0.32;;;0.10;;
71955;SDS011;59829;50.562;6.258;2022-10-16T11:14:44;0.10;;;0.10;;
71955;SDS011;59829;50.562;6.258;2022-10-16T11:25:05;0.10;;;0.10;;
71955;SDS011;59829;50.562;6.258;2022-10-16T11:45:24;0.50;;;0.20;;
71955;SDS011;59829;50.562;6.258;2022-10-16T11:55:31;0.40;;;0.20;;
71955;SDS011;59829;50.562;6.258;2022-10-16T12:05:47;0.10;;;0.10;;
71955;SDS011;59829;50.562;6.258;2022-10-16T12:26:12;0.25;;;0.10;;
71955;SDS011;59829;50.562;6.258;2022-10-16T12:36:16;0.20;;;0.20;;
71955;SDS011;59829;50.562;6.258;2022-10-16T13:07:11;0.60;;;0.13;;
71955;SDS011;59829;50.562;6.258;2022-10-16T13:17:37;0.00;;;0.00;;
71955;SDS011;59829;50.562;6.258;2022-10-16T13:27:45;0.00;;;0.00;;
71955;SDS011;59829;50.562;6.258;2022-10-16T13:38:03;0.20;;;0.00;;
71955;SDS011;59829;50.562;6.258;2022-10-16T13:48:14;0.00;;;0.00;;
71955;SDS011;59829;50.562;6.258;2022-10-16T13:58:14;0.00;;;0.00;;
71955;SDS011;59829;50.562;6.258;2022-10-16T14:08:15;0.00;;;0.00;;
71955;SDS011;59829;50.562;6.258;2022-10-16T14:18:17;0.10;;;0.00;;
71955;SDS011;59829;50.562;6.258;2022-10-16T14:28:21;0.08;;;0.00;;
71955;SDS011;59829;50.562;6.258;2022-10-16T14:38:22;0.00;;;0.00;;
71955;SDS011;59829;50.562;6.258;2022-10-16T14:48:23;0.00;;;0.00;;
71955;SDS011;59829;50.562;6.258;2022-10-16T14:58:24;0.00;;;0.00;;
71955;SDS011;59829;50.562;6.258;2022-10-16T15:08:26;0.00;;;0.00;;
71955;SDS011;59829;50.562;6.258;2022-10-16T15:18:26;0.05;;;0.00;;
71955;SDS011;59829;50.562;6.258;2022-10-16T15:28:26;0.00;;;0.00;;
71955;SDS011;59829;50.562;6.258;2022-10-16T15:38:27;0.00;;;0.00;;
71955;SDS011;59829;50.562;6.258;2022-10-16T15:48:28;0.00;;;0.00;;
71955;SDS011;59829;50.562;6.258;2022-10-16T15:58:30;0.00;;;0.00;;
71955;SDS011;59829;50.562;6.258;2022-10-16T16:08:32;0.05;;;0.00;;
71955;SDS011;59829;50.562;6.258;2022-10-16T16:18:33;0.00;;;0.00;;
71955;SDS011;59829;50.562;6.258;2022-10-16T16:28:33;0.45;;;0.30;;
71955;SDS011;59829;50.562;6.258;2022-10-16T16:38:34;0.20;;;0.10;;
71955;SDS011;59829;50.562;6.258;2022-10-16T16:48:34;1.92;;;0.80;;
71955;SDS011;59829;50.562;6.258;2022-10-16T16:58:35;4.80;;;1.30;;
71955;SDS011;59829;50.562;6.258;2022-10-16T17:08:35;1.55;;;0.68;;
71955;SDS011;59829;50.562;6.258;2022-10-16T17:18:36;1.45;;;0.70;;
71955;SDS011;59829;50.562;6.258;2022-10-16T17:28:37;0.35;;;0.30;;
71955;SDS011;59829;50.562;6.258;2022-10-16T17:38:37;0.60;;;0.40;;
71955;SDS011;59829;50.562;6.258;2022-10-16T17:48:38;0.80;;;0.60;;
71955;SDS011;59829;50.562;6.258;2022-10-16T17:58:40;0.73;;;0.53;;
71955;SDS011;59829;50.562;6.258;2022-10-16T18:08:40;1.15;;;0.60;;
71955;SDS011;59829;50.562;6.258;2022-10-16T18:18:41;0.85;;;0.65;;
71955;SDS011;59829;50.562;6.258;2022-10-16T18:28:43;1.45;;;0.90;;
71955;SDS011;59829;50.562;6.258;2022-10-16T18:38:44;1.17;;;0.90;;
71955;SDS011;59829;50.562;6.258;2022-10-16T18:48:45;1.00;;;0.73;;
71955;SDS011;59829;50.562;6.258;2022-10-16T18:58:46;1.35;;;1.00;;
71955;SDS011;59829;50.562;6.258;2022-10-16T19:08:48;1.00;;;0.80;;
71955;SDS011;59829;50.562;6.258;2022-10-16T19:18:49;1.40;;;1.08;;
71955;SDS011;59829;50.562;6.258;2022-10-16T19:28:53;1.25;;;1.10;;
71955;SDS011;59829;50.562;6.258;2022-10-16T19:48:59;1.90;;;1.30;;
71955;SDS011;59829;50.562;6.258;2022-10-16T19:59:02;1.60;;;1.20;;
71955;SDS011;59829;50.562;6.258;2022-10-16T20:09:04;2.10;;;1.67;;
71955;SDS011;59829;50.562;6.258;2022-10-16T20:19:05;1.80;;;1.40;;
71955;SDS011;59829;50.562;6.258;2022-10-16T20:29:05;2.00;;;1.50;;
71955;SDS011;59829;50.562;6.258;2022-10-16T20:39:06;2.10;;;1.20;;
71955;SDS011;59829;50.562;6.258;2022-10-16T20:49:07;1.30;;;1.00;;
71955;SDS011;59829;50.562;6.258;2022-10-16T20:59:09;0.65;;;0.50;;
71955;SDS011;59829;50.562;6.258;2022-10-16T21:09:10;0.30;;;0.30;;
71955;SDS011;59829;50.562;6.258;2022-10-16T21:19:10;0.20;;;0.20;;
71955;SDS011;59829;50.562;6.258;2022-10-16T21:29:10;0.70;;;0.50;;
71955;SDS011;59829;50.562;6.258;2022-10-16T21:39:13;0.60;;;0.50;;
71955;SDS011;59829;50.562;6.258;2022-10-16T21:49:16;0.50;;;0.40;;
71955;SDS011;59829;50.562;6.258;2022-10-16T21:59:18;1.73;;;0.40;;
71955;SDS011;59829;50.562;6.258;2022-10-16T22:09:19;0.50;;;0.40;;
71955;SDS011;59829;50.562;6.258;2022-10-16T22:19:20;0.40;;;0.30;;
71955;SDS011;59829;50.562;6.258;2022-10-16T22:29:21;0.30;;;0.20;;
71955;SDS011;59829;50.562;6.258;2022-10-16T22:39:21;0.43;;;0.30;;
71955;SDS011;59829;50.562;6.258;2022-10-16T22:49:22;0.75;;;0.50;;
71955;SDS011;59829;50.562;6.258;2022-10-16T22:59:23;0.90;;;0.40;;
71955;SDS011;59829;50.562;6.258;2022-10-16T23:09:23;0.90;;;0.60;;
71955;SDS011;59829;50.562;6.258;2022-10-16T23:19:24;1.13;;;0.50;;
71955;SDS011;59829;50.562;6.258;2022-10-16T23:29:24;1.20;;;0.93;;
71955;SDS011;59829;50.562;6.258;2022-10-16T23:39:24;1.10;;;0.80;;
71955;SDS011;59829;50.562;6.258;2022-10-16T23:49:25;0.98;;;0.70;;
71955;SDS011;59829;50.562;6.258;2022-10-16T23:59:25;1.13;;;0.80;;
